createdAt,value
2022-08-20T00:02:09.997Z,100.00
2022-08-20T00:05:13.995Z,100.00
2022-08-20T00:08:16.412Z,100.00
2022-08-20T00:11:20.803Z,100.00
2022-08-20T00:14:25.177Z,100.00
2022-08-20T00:17:37.016Z,100.00
2022-08-20T00:20:41.705Z,100.00
2022-08-20T00:23:45.246Z,100.00
2022-08-20T00:26:51.957Z,100.00
2022-08-20T00:29:55.429Z,100.00
2022-08-20T00:32:59.483Z,100.00
2022-08-20T00:36:07.222Z,100.00
2022-08-20T00:39:09.612Z,100.00
2022-08-20T00:42:12.256Z,100.00
2022-08-20T00:45:15.352Z,100.00
2022-08-20T00:48:18.563Z,100.00
2022-08-20T00:51:27.680Z,100.00
2022-08-20T00:54:35.789Z,100.00
2022-08-20T00:58:00.698Z,100.00
2022-08-20T01:01:02.891Z,100.00
2022-08-20T01:04:05.520Z,100.00
2022-08-20T01:07:08.135Z,100.00
2022-08-20T01:10:12.510Z,100.00
2022-08-20T01:13:17.374Z,100.00
2022-08-20T01:16:22.911Z,100.00
2022-08-20T01:19:30.358Z,100.00
2022-08-20T01:22:59.828Z,100.00
2022-08-20T01:26:09.535Z,100.00
2022-08-20T01:29:14.611Z,100.00
2022-08-20T01:32:17.233Z,100.00
2022-08-20T01:35:23.372Z,100.00
2022-08-20T01:38:26.556Z,100.00
2022-08-20T01:41:35.464Z,100.00
2022-08-20T01:44:39.027Z,100.00
2022-08-20T01:47:41.785Z,100.00
2022-08-20T01:51:10.102Z,100.00
2022-08-20T01:54:13.716Z,100.00
2022-08-20T01:57:17.280Z,100.00
2022-08-20T02:00:21.932Z,100.00
2022-08-20T02:03:24.699Z,100.00
2022-08-20T02:06:28.624Z,100.00
2022-08-20T02:09:36.056Z,100.00
2022-08-20T02:12:39.939Z,100.00
2022-08-20T02:15:43.126Z,100.00
2022-08-20T02:18:45.918Z,100.00
2022-08-20T02:21:50.999Z,100.00
2022-08-20T02:24:53.680Z,100.00
2022-08-20T02:27:57.083Z,100.00
2022-08-20T02:31:00.666Z,100.00
2022-08-20T02:34:22.202Z,100.00
2022-08-20T02:37:25.563Z,100.00
2022-08-20T02:40:30.991Z,100.00
2022-08-20T02:43:34.154Z,100.00
2022-08-20T02:46:36.501Z,100.00
2022-08-20T02:49:39.137Z,100.00
2022-08-20T02:52:41.764Z,100.00
2022-08-20T02:55:54.315Z,100.00
2022-08-20T02:58:56.655Z,100.00
2022-08-20T03:02:00.634Z,100.00
2022-08-20T03:05:04.293Z,100.00
2022-08-20T03:08:08.464Z,100.00
2022-08-20T03:11:11.007Z,100.00
2022-08-20T03:14:13.576Z,100.00
2022-08-20T03:17:16.535Z,100.00
2022-08-20T03:20:22.348Z,100.00
2022-08-20T03:23:26.332Z,100.00
2022-08-20T03:26:28.881Z,100.00
2022-08-20T03:29:31.223Z,100.00
2022-08-20T03:32:34.100Z,100.00
2022-08-20T03:35:36.887Z,100.00
2022-08-20T03:38:41.466Z,100.00
2022-08-20T03:41:43.753Z,100.00
2022-08-20T03:44:46.411Z,100.00
2022-08-20T03:47:49.348Z,100.00
2022-08-20T03:50:52.821Z,100.00
2022-08-20T03:53:55.090Z,100.00
2022-08-20T03:56:57.795Z,100.00
2022-08-20T04:00:00.094Z,100.00
2022-08-20T04:03:02.977Z,100.00
2022-08-20T04:06:05.751Z,100.00
2022-08-20T04:09:09.465Z,100.00
2022-08-20T04:12:14.204Z,100.00
2022-08-20T04:15:18.516Z,100.00
2022-08-20T04:18:22.971Z,100.00
2022-08-20T04:21:25.232Z,100.00
2022-08-20T04:24:32.762Z,100.00
2022-08-20T04:27:38.568Z,100.00
2022-08-20T04:30:43.365Z,100.00
2022-08-20T04:33:53.896Z,100.00
2022-08-20T04:36:56.753Z,100.00
2022-08-20T04:40:20.780Z,100.00
2022-08-20T04:43:34.877Z,100.00
2022-08-20T04:46:38.779Z,100.00
2022-08-20T04:49:41.361Z,100.00
2022-08-20T04:52:43.776Z,100.00
2022-08-20T04:55:46.487Z,100.00
2022-08-20T04:58:49.982Z,100.00
2022-08-20T05:01:52.543Z,100.00
2022-08-20T05:04:54.815Z,100.00
2022-08-20T05:07:58.367Z,100.00
2022-08-20T05:11:30.074Z,100.00
2022-08-20T05:14:23.384Z,100.00
2022-08-20T05:17:25.654Z,100.00
2022-08-20T05:20:30.676Z,100.00
2022-08-20T05:23:34.145Z,100.00
2022-08-20T05:26:36.887Z,100.00
2022-08-20T05:29:39.170Z,100.00
2022-08-20T05:32:44.834Z,100.00
2022-08-20T05:35:48.600Z,100.00
2022-08-20T05:38:52.402Z,100.00
2022-08-20T05:41:54.625Z,100.00
2022-08-20T05:44:57.158Z,100.00
2022-08-20T05:48:03.592Z,100.00
2022-08-20T05:51:06.253Z,100.00
2022-08-20T05:54:09.766Z,100.00
2022-08-20T05:57:13.778Z,100.00
2022-08-20T06:00:16.175Z,100.00
2022-08-20T06:03:37.380Z,100.00
2022-08-20T06:06:46.254Z,100.00
2022-08-20T06:09:49.501Z,100.00
2022-08-20T06:12:53.272Z,100.00
2022-08-20T06:15:56.347Z,100.00
2022-08-20T06:19:02.909Z,100.00
2022-08-20T06:22:18.011Z,99.28
2022-08-20T06:25:26.774Z,94.17
2022-08-20T06:28:29.347Z,92.03
2022-08-20T06:31:31.835Z,87.96
2022-08-20T06:34:34.422Z,87.74
2022-08-20T06:37:37.983Z,90.12
2022-08-20T06:40:40.736Z,87.34
2022-08-20T06:43:43.131Z,88.65
2022-08-20T06:46:45.780Z,87.15
2022-08-20T06:49:48.583Z,89.16
2022-08-20T06:52:51.988Z,88.88
2022-08-20T06:55:58.019Z,89.65
2022-08-20T06:59:00.893Z,89.46
2022-08-20T07:02:03.668Z,86.65
2022-08-20T07:05:06.754Z,84.62
2022-08-20T07:08:10.211Z,84.32
2022-08-20T07:11:12.932Z,84.75
2022-08-20T07:14:15.832Z,88.56
2022-08-20T07:17:18.590Z,86.50
2022-08-20T07:20:21.233Z,84.20
2022-08-20T07:23:24.648Z,85.96
2022-08-20T07:26:27.747Z,84.15
2022-08-20T07:29:50.608Z,85.19
2022-08-20T07:32:53.031Z,84.79
2022-08-20T07:35:58.977Z,85.72
2022-08-20T07:39:06.057Z,83.78
2022-08-20T07:42:09.461Z,86.22
2022-08-20T07:45:13.200Z,85.15
2022-08-20T07:48:27.977Z,84.87
2022-08-20T07:51:34.348Z,88.00
2022-08-20T07:54:38.132Z,81.05
2022-08-20T07:57:41.204Z,84.92
2022-08-20T08:00:49.575Z,86.51
2022-08-20T08:03:52.836Z,88.04
2022-08-20T08:06:55.819Z,88.54
2022-08-20T08:09:58.716Z,94.18
2022-08-20T08:13:02.907Z,96.34
2022-08-20T08:16:06.502Z,100.00
2022-08-20T08:19:12.095Z,100.00
2022-08-20T08:22:16.674Z,100.00
2022-08-20T08:25:19.388Z,100.00
2022-08-20T08:28:22.070Z,100.00
2022-08-20T08:31:25.805Z,100.00
2022-08-20T08:34:29.179Z,100.00
2022-08-20T08:37:32.149Z,100.00
2022-08-20T08:40:34.767Z,100.00
2022-08-20T08:43:37.319Z,100.00
2022-08-20T08:46:42.015Z,100.00
2022-08-20T08:49:45.495Z,100.00
2022-08-20T08:52:50.386Z,100.00
2022-08-20T08:55:52.716Z,100.00
2022-08-20T08:59:01.507Z,100.00
2022-08-20T09:02:06.299Z,100.00
2022-08-20T09:05:13.651Z,100.00
2022-08-20T09:08:18.602Z,100.00
2022-08-20T09:11:22.559Z,100.00
2022-08-20T09:14:25.434Z,100.00
2022-08-20T09:17:27.994Z,100.00
2022-08-20T09:20:31.065Z,100.00
2022-08-20T09:23:33.753Z,100.00
2022-08-20T09:26:39.065Z,100.00
2022-08-20T09:29:42.447Z,100.00
2022-08-20T09:32:45.908Z,100.00
2022-08-20T09:35:48.593Z,100.00
2022-08-20T09:38:50.897Z,100.00
2022-08-20T09:41:53.493Z,100.00
2022-08-20T09:44:55.960Z,100.00
2022-08-20T09:47:58.790Z,100.00
2022-08-20T09:51:02.572Z,100.00
2022-08-20T09:54:05.249Z,100.00
2022-08-20T09:57:09.032Z,100.00
2022-08-20T10:00:12.625Z,100.00
2022-08-20T10:03:15.297Z,100.00
2022-08-20T10:06:20.226Z,100.00
2022-08-20T10:09:22.826Z,100.00
2022-08-20T10:12:25.449Z,100.00
2022-08-20T10:15:27.976Z,100.00
2022-08-20T10:18:30.550Z,100.00
2022-08-20T10:21:36.735Z,100.00
2022-08-20T10:24:41.401Z,100.00
2022-08-20T10:27:44.441Z,100.00
2022-08-20T10:30:47.279Z,100.00
2022-08-20T10:33:49.607Z,100.00
2022-08-20T10:36:52.227Z,100.00
2022-08-20T10:39:55.171Z,100.00
2022-08-20T10:42:57.856Z,100.00
2022-08-20T10:46:00.301Z,100.00
2022-08-20T10:49:02.882Z,100.00
2022-08-20T10:52:06.043Z,100.00
2022-08-20T10:55:09.010Z,100.00
2022-08-20T10:58:13.103Z,100.00
2022-08-20T11:01:31.283Z,100.00
2022-08-20T11:04:35.644Z,100.00
2022-08-20T11:07:52.761Z,100.00
2022-08-20T11:10:58.731Z,100.00
2022-08-20T11:14:01.336Z,100.00
2022-08-20T11:17:04.086Z,100.00
2022-08-20T11:20:07.979Z,100.00
2022-08-20T11:23:10.475Z,100.00
2022-08-20T11:26:20.052Z,100.00
2022-08-20T11:29:22.814Z,100.00
2022-08-20T11:32:25.431Z,100.00
2022-08-20T11:35:48.480Z,97.98
2022-08-20T11:38:52.445Z,100.00
2022-08-20T11:41:55.516Z,100.00
2022-08-20T11:44:58.131Z,97.51
2022-08-20T11:48:00.578Z,96.72
2022-08-20T11:51:05.168Z,97.97
2022-08-20T11:54:07.534Z,93.05
2022-08-20T11:57:11.044Z,92.14
2022-08-20T12:00:18.495Z,93.66
2022-08-20T12:03:21.109Z,92.49
2022-08-20T12:06:23.571Z,93.62
2022-08-20T12:09:26.185Z,91.85
2022-08-20T12:12:28.517Z,90.26
2022-08-20T12:15:31.122Z,91.96
2022-08-20T12:18:33.665Z,93.43
2022-08-20T12:21:36.240Z,89.12
2022-08-20T12:24:38.515Z,88.77
2022-08-20T12:27:41.331Z,90.39
2022-08-20T12:30:43.638Z,90.69
2022-08-20T12:33:46.160Z,90.73
2022-08-20T12:36:48.433Z,89.91
2022-08-20T12:39:54.403Z,92.51
2022-08-20T12:42:57.068Z,89.93
2022-08-20T12:46:00.280Z,91.72
2022-08-20T12:49:02.634Z,93.03
2022-08-20T12:52:05.337Z,94.41
2022-08-20T12:55:08.687Z,92.89
2022-08-20T12:58:11.401Z,88.46
2022-08-20T13:01:15.676Z,93.91
2022-08-20T13:04:18.662Z,90.17
2022-08-20T13:07:21.047Z,88.10
2022-08-20T13:10:27.369Z,87.96
2022-08-20T13:13:29.674Z,88.25
2022-08-20T13:16:32.483Z,84.95
2022-08-20T13:19:36.116Z,86.88
2022-08-20T13:22:38.741Z,83.99
2022-08-20T13:25:41.213Z,87.17
2022-08-20T13:28:43.823Z,85.94
2022-08-20T13:31:46.617Z,86.84
2022-08-20T13:34:49.185Z,86.03
2022-08-20T13:37:52.192Z,90.25
2022-08-20T13:40:55.013Z,89.67
2022-08-20T13:43:57.324Z,83.07
2022-08-20T13:47:00.270Z,81.77
2022-08-20T13:50:15.217Z,81.62
2022-08-20T13:53:18.200Z,82.51
2022-08-20T13:56:20.612Z,82.64
2022-08-20T13:59:24.154Z,85.33
2022-08-20T14:02:26.749Z,85.43
2022-08-20T14:05:29.971Z,86.53
2022-08-20T14:08:32.632Z,86.98
2022-08-20T14:11:35.509Z,88.01
2022-08-20T14:14:37.895Z,85.39
2022-08-20T14:17:42.025Z,90.54
2022-08-20T14:20:45.550Z,88.39
2022-08-20T14:23:48.398Z,85.24
2022-08-20T14:26:50.713Z,85.13
2022-08-20T14:29:53.408Z,85.77
2022-08-20T14:32:55.979Z,87.87
2022-08-20T14:35:58.649Z,90.77
2022-08-20T14:39:00.988Z,90.32
2022-08-20T14:42:03.615Z,93.58
2022-08-20T14:45:07.039Z,90.77
2022-08-20T14:48:09.671Z,95.66
2022-08-20T14:51:12.066Z,91.28
2022-08-20T14:54:14.721Z,93.81
2022-08-20T14:57:18.184Z,92.72
2022-08-20T15:00:24.628Z,92.71
2022-08-20T15:03:30.489Z,93.98
2022-08-20T15:06:33.103Z,89.96
2022-08-20T15:09:35.979Z,90.56
2022-08-20T15:12:38.668Z,90.25
2022-08-20T15:15:45.238Z,88.94
2022-08-20T15:18:47.877Z,87.07
2022-08-20T15:21:50.249Z,89.32
2022-08-20T15:24:55.627Z,86.58
2022-08-20T15:28:01.907Z,85.89
2022-08-20T15:31:08.786Z,89.20
2022-08-20T15:34:11.467Z,90.15
2022-08-20T15:37:22.070Z,87.61
2022-08-20T15:40:28.206Z,88.88
2022-08-20T15:43:31.595Z,90.81
2022-08-20T15:46:37.715Z,90.82
2022-08-20T15:49:43.183Z,89.60
2022-08-20T15:52:45.804Z,91.20
2022-08-20T15:55:53.874Z,92.57
2022-08-20T15:58:58.926Z,92.59
2022-08-20T16:02:16.833Z,92.67
2022-08-20T16:05:22.797Z,94.57
2022-08-20T16:08:25.650Z,94.70
2022-08-20T16:11:42.560Z,95.15
2022-08-20T16:14:46.240Z,95.71
2022-08-20T16:18:02.108Z,96.93
2022-08-20T16:21:09.663Z,95.94
2022-08-20T16:24:13.882Z,99.31
2022-08-20T16:27:25.195Z,99.41
2022-08-20T16:30:30.913Z,99.31
2022-08-20T16:33:33.327Z,99.27
2022-08-20T16:36:37.874Z,99.84
2022-08-20T16:40:00.684Z,100.00
2022-08-20T16:43:04.930Z,99.46
2022-08-20T16:46:27.943Z,99.67
2022-08-20T16:49:31.429Z,99.23
2022-08-20T16:52:33.767Z,100.00
2022-08-20T16:55:36.322Z,100.00
2022-08-20T16:58:38.625Z,100.00
2022-08-20T17:01:41.365Z,100.00
2022-08-20T17:04:50.525Z,100.00
2022-08-20T17:08:03.522Z,100.00
2022-08-20T17:11:17.296Z,100.00
2022-08-20T17:14:19.991Z,100.00
2022-08-20T17:17:24.097Z,100.00
2022-08-20T17:20:29.104Z,100.00
2022-08-20T17:23:44.513Z,100.00
2022-08-20T17:27:03.283Z,100.00
2022-08-20T17:30:06.411Z,100.00
2022-08-20T17:33:19.269Z,100.00
2022-08-20T17:36:22.449Z,100.00
2022-08-20T17:39:26.750Z,100.00
2022-08-20T17:42:29.400Z,100.00
2022-08-20T17:45:35.557Z,100.00
2022-08-20T17:48:46.236Z,100.00
2022-08-20T17:51:50.738Z,100.00
2022-08-20T17:54:53.144Z,100.00
2022-08-20T17:57:57.971Z,100.00
2022-08-20T18:01:00.340Z,100.00
2022-08-20T18:04:03.365Z,100.00
2022-08-20T18:07:15.229Z,100.00
2022-08-20T18:10:23.494Z,100.00
2022-08-20T18:13:33.282Z,100.00
2022-08-20T18:16:42.051Z,100.00
2022-08-20T18:19:53.705Z,100.00
2022-08-20T18:23:12.344Z,100.00
2022-08-20T18:26:19.577Z,100.00
2022-08-20T18:29:27.403Z,100.00
2022-08-20T18:32:30.127Z,100.00
2022-08-20T18:35:38.216Z,100.00
2022-08-20T18:38:42.101Z,100.00
2022-08-20T18:41:56.389Z,100.00
2022-08-20T18:44:59.049Z,100.00
2022-08-20T18:48:02.467Z,100.00
2022-08-20T18:51:09.084Z,100.00
2022-08-20T18:54:23.127Z,100.00
2022-08-20T18:57:27.079Z,100.00
2022-08-20T19:00:43.709Z,100.00
2022-08-20T19:03:47.952Z,100.00
2022-08-20T19:06:57.809Z,100.00
2022-08-20T19:10:28.036Z,100.00
2022-08-20T19:13:40.116Z,100.00
2022-08-20T19:16:46.239Z,100.00
2022-08-20T19:19:58.949Z,100.00
2022-08-20T19:23:06.017Z,100.00
2022-08-20T19:26:25.212Z,100.00
2022-08-20T19:29:35.535Z,100.00
2022-08-20T19:32:42.715Z,100.00
2022-08-20T19:35:48.864Z,100.00
2022-08-20T19:38:52.932Z,100.00
2022-08-20T19:42:01.006Z,100.00
2022-08-20T19:45:07.904Z,100.00
2022-08-20T19:48:33.396Z,100.00
2022-08-20T19:51:47.938Z,100.00
2022-08-20T19:54:52.072Z,100.00
2022-08-20T19:57:56.355Z,100.00
2022-08-20T20:01:00.667Z,100.00
2022-08-20T20:04:03.412Z,100.00
2022-08-20T20:07:15.230Z,100.00
2022-08-20T20:10:32.489Z,100.00
2022-08-20T20:13:37.817Z,100.00
2022-08-20T20:16:42.670Z,100.00
2022-08-20T20:19:46.422Z,100.00
2022-08-20T20:22:57.566Z,100.00
2022-08-20T20:26:04.418Z,100.00
2022-08-20T20:29:07.433Z,100.00
2022-08-20T20:32:19.318Z,100.00
2022-08-20T20:35:27.892Z,100.00
2022-08-20T20:38:30.304Z,100.00
2022-08-20T20:41:33.148Z,100.00
2022-08-20T20:44:37.662Z,100.00
2022-08-20T20:47:40.513Z,100.00
2022-08-20T20:50:42.932Z,100.00
2022-08-20T20:53:53.235Z,100.00
2022-08-20T20:57:04.303Z,100.00
2022-08-20T21:00:09.939Z,100.00
2022-08-20T21:03:12.299Z,100.00
2022-08-20T21:06:15.135Z,100.00
2022-08-20T21:09:18.667Z,100.00
2022-08-20T21:12:21.721Z,100.00
2022-08-20T21:15:24.697Z,100.00
2022-08-20T21:18:27.332Z,100.00
2022-08-20T21:21:29.619Z,100.00
2022-08-20T21:24:32.247Z,100.00
2022-08-20T21:27:34.987Z,100.00
2022-08-20T21:30:37.639Z,100.00
2022-08-20T21:33:39.968Z,100.00
2022-08-20T21:36:42.495Z,100.00
2022-08-20T21:39:44.913Z,100.00
2022-08-20T21:42:47.587Z,100.00
2022-08-20T21:45:51.188Z,100.00
2022-08-20T21:48:53.785Z,100.00
2022-08-20T21:51:56.411Z,100.00
2022-08-20T21:54:59.844Z,100.00
2022-08-20T21:58:02.475Z,100.00
2022-08-20T22:01:05.622Z,100.00
2022-08-20T22:04:08.203Z,100.00
2022-08-20T22:07:11.100Z,100.00
2022-08-20T22:10:13.725Z,100.00
2022-08-20T22:13:16.224Z,100.00
2022-08-20T22:16:20.468Z,100.00
2022-08-20T22:19:22.948Z,100.00
2022-08-20T22:22:25.535Z,100.00
2022-08-20T22:25:28.151Z,100.00
2022-08-20T22:28:30.784Z,100.00
2022-08-20T22:31:34.198Z,100.00
2022-08-20T22:34:37.368Z,100.00
2022-08-20T22:37:39.749Z,100.00
2022-08-20T22:40:42.982Z,100.00
2022-08-20T22:43:56.857Z,100.00
2022-08-20T22:47:01.393Z,100.00
2022-08-20T22:50:04.121Z,100.00
2022-08-20T22:53:07.319Z,100.00
2022-08-20T22:56:09.616Z,100.00
2022-08-20T22:59:22.956Z,100.00
2022-08-20T23:02:25.539Z,100.00
2022-08-20T23:05:29.672Z,100.00
2022-08-20T23:08:32.748Z,100.00
2022-08-20T23:11:35.381Z,100.00
2022-08-20T23:14:38.044Z,100.00
2022-08-20T23:17:40.779Z,100.00
2022-08-20T23:20:46.155Z,100.00
2022-08-20T23:23:48.690Z,100.00
2022-08-20T23:26:52.939Z,100.00
2022-08-20T23:29:56.223Z,100.00
2022-08-20T23:33:01.837Z,100.00
2022-08-20T23:36:07.184Z,100.00
2022-08-20T23:39:10.004Z,100.00
2022-08-20T23:42:13.381Z,100.00
2022-08-20T23:45:16.132Z,100.00
2022-08-20T23:48:18.731Z,100.00
2022-08-20T23:51:21.425Z,100.00
2022-08-20T23:54:24.018Z,100.00
2022-08-20T23:57:26.483Z,100.00
